LA5NNA Weather Reports


time (UTC)temp
C
wind
direction
speed
KPH
gust
KPH
rain 1hr
cm
rain 24hr
cm
rain mn
cm
humidity
%
barometer
mb
20190825151504 23 108 4.8 16.1 0.00 0.00 0.00 64 1022.1
20190825151004 23 119 6.4 20.9 0.00 0.00 0.00 63 1022.1
20190825150503 23 123 8.0 19.3 0.00 0.00 0.00 63 1022.2
20190825150007 23 108 4.8 16.1 0.00 0.00 0.00 63 1022.2
20190825145504 23 138 6.4 19.3 0.00 0.00 0.00 64 1022.2
20190825145004 23 100 4.8 14.5 0.00 0.00 0.00 64 1022.1
20190825144504 23 125 9.7 22.5 0.00 0.00 0.00 64 1022.2
20190825144004 23 137 8.0 16.1 0.00 0.00 0.00 64 1022.2
20190825143504 24 142 4.8 16.1 0.00 0.00 0.00 65 1022.1
20190825143007 24 95 6.4 19.3 0.00 0.00 0.00 65 1022.1
20190825142505 24 104 8.0 14.5 0.00 0.00 0.00 65 1022.2
20190825142005 24 108 4.8 14.5 0.00 0.00 0.00 65 1022.1
20190825141504 24 161 3.2 16.1 0.00 0.00 0.00 65 1022.0
20190825141005 24 100 4.8 12.9 0.00 0.00 0.00 66 1022.1
20190825140504 24 91 6.4 12.9 0.00 0.00 0.00 66 1022.1
20190825140007 24 78 6.4 12.9 0.00 0.00 0.00 65 1022.1
20190825135504 24 106 9.7 16.1 0.00 0.00 0.00 65 1022.0
20190825135006 24 134 8.0 20.9 0.00 0.00 0.00 65 1022.0
20190825134505 24 84 8.0 16.1 0.00 0.00 0.00 64 1022.1
20190825134005 24 119 8.0 16.1 0.00 0.00 0.00 64 1022.1
20190825133504 24 125 8.0 14.5 0.00 0.00 0.00 64 1022.1
20190825133007 24 115 8.0 16.1 0.00 0.00 0.00 64 1022.2
20190825132504 24 138 8.0 16.1 0.00 0.00 0.00 64 1022.2
20190825132006 24 107 8.0 16.1 0.00 0.00 0.00 64 1022.3
20190825131503 24 128 4.8 12.9 0.00 0.00 0.00 64 1022.3
20190825131004 24 130 4.8 12.9 0.00 0.00 0.00 64 1022.4
20190825130506 24 78 9.7 19.3 0.00 0.00 0.00 63 1022.3
20190825130007 24 144 6.4 14.5 0.00 0.00 0.00 64 1022.3
20190825125505 24 93 12.9 24.1 0.00 0.00 0.00 63 1022.4
20190825125004 24 118 11.3 24.1 0.00 0.00 0.00 64 1022.5
20190825124505 24 115 11.3 20.9 0.00 0.00 0.00 64 1022.4
20190825124004 24 114 9.7 19.3 0.00 0.00 0.00 65 1022.5
20190825123504 24 103 4.8 16.1 0.00 0.00 0.00 64 1022.3
20190825123006 24 117 9.7 19.3 0.00 0.00 0.00 66 1022.4
20190825122505 24 89 9.7 19.3 0.00 0.00 0.00 66 1022.4
20190825122004 23 88 11.3 20.9 0.00 0.00 0.00 66 1022.3
20190825121504 23 108 11.3 20.9 0.00 0.00 0.00 67 1022.4
20190825121005 23 76 12.9 20.9 0.00 0.00 0.00 67 1022.3
20190825120504 23 102 11.3 20.9 0.00 0.00 0.00 67 1022.3
20190825120006 23 99 11.3 20.9 0.00 0.00 0.00 67 1022.3
20190825115505 23 91 8.0 19.3 0.00 0.00 0.00 67 1022.3
20190825115004 23 83 11.3 20.9 0.00 0.00 0.00 67 1022.2
20190825114504 23 103 11.3 20.9 0.00 0.00 0.00 67 1022.2
20190825114004 23 122 9.7 22.5 0.00 0.00 0.00 67 1022.3
20190825113503 23 106 12.9 24.1 0.00 0.00 0.00 69 1022.3
20190825113006 23 91 4.8 16.1 0.00 0.00 0.00 68 1022.3
20190825112505 23 97 12.9 20.9 0.00 0.00 0.00 68 1022.2
20190825112006 23 118 11.3 22.5 0.00 0.00 0.00 69 1022.2
20190825111505 23 93 8.0 19.3 0.00 0.00 0.00 68 1022.2
20190825111004 23 110 14.5 25.7 0.00 0.00 0.00 69 1022.2
20190825110505 23 96 14.5 25.7 0.00 0.00 0.00 70 1022.3
20190825110008 22 95 12.9 22.5 0.00 0.00 0.00 70 1022.3
20190825105504 22 100 9.7 20.9 0.00 0.00 0.00 70 1022.2
20190825105004 22 93 11.3 22.5 0.00 0.00 0.00 71 1022.2
20190825104504 22 99 11.3 22.5 0.00 0.00 0.00 72 1022.2
20190825104005 22 103 11.3 24.1 0.00 0.00 0.00 72 1022.3
20190825103504 22 101 9.7 16.1 0.00 0.00 0.00 73 1022.3
20190825103010 22 114 8.0 19.3 0.00 0.00 0.00 72 1022.3
20190825102504 21 121 9.7 19.3 0.00 0.00 0.00 72 1022.4
20190825102005 21 125 9.7 14.5 0.00 0.00 0.00 72 1022.5
20190825101504 21 113 8.0 14.5 0.00 0.00 0.00 72 1022.6
20190825101004 21 110 11.3 16.1 0.00 0.00 0.00 72 1022.5
20190825100504 21 122 8.0 14.5 0.00 0.00 0.00 72 1022.7
20190825100007 21 117 9.7 19.3 0.00 0.00 0.00 72 1022.5
20190825095504 21 113 8.0 19.3 0.00 0.00 0.00 72 1022.7
20190825095004 21 99 9.7 20.9 0.00 0.00 0.00 72 1022.5
20190825094505 21 127 8.0 16.1 0.00 0.00 0.00 72 1022.6
20190825094004 21 110 8.0 14.5 0.00 0.00 0.00 73 1022.6
20190825093504 21 101 6.4 20.9 0.00 0.00 0.00 73 1022.6
20190825093007 21 117 6.4 14.5 0.00 0.00 0.00 73 1022.7
20190825092505 21 110 8.0 16.1 0.00 0.00 0.00 73 1022.7
20190825092005 21 121 9.7 20.9 0.00 0.00 0.00 74 1022.8
20190825091514 21 101 9.7 19.3 0.00 0.00 0.00 74 1022.8
20190825091005 21 104 9.7 19.3 0.00 0.00 0.00 75 1022.7
20190825090504 21 90 11.3 16.1 0.00 0.00 0.00 75 1022.8
20190825090006 21 92 11.3 19.3 0.00 0.00 0.00 75 1022.8
20190825085504 21 89 11.3 20.9 0.00 0.00 0.00 75 1022.9
20190825085004 21 99 11.3 20.9 0.00 0.00 0.00 76 1022.8
20190825084505 20 88 9.7 22.5 0.00 0.00 0.00 76 1022.7
20190825084005 20 99 11.3 22.5 0.00 0.00 0.00 76 1022.7
20190825083504 20 104 14.5 25.7 0.00 0.00 0.00 77 1022.8
20190825083008 20 108 9.7 20.9 0.00 0.00 0.00 77 1022.7
20190825082504 20 102 8.0 20.9 0.00 0.00 0.00 78 1022.8
20190825082004 20 84 11.3 19.3 0.00 0.00 0.00 78 1022.7
20190825081504 20 94 8.0 16.1 0.00 0.00 0.00 78 1022.8
20190825081004 20 93 8.0 22.5 0.00 0.00 0.00 79 1022.9
20190825080504 19 93 9.7 19.3 0.00 0.00 0.00 79 1022.9
20190825080008 19 102 11.3 20.9 0.00 0.00 0.00 79 1022.7
20190825075505 19 92 11.3 22.5 0.00 0.00 0.00 80 1022.9
20190825075005 19 104 11.3 22.5 0.00 0.00 0.00 80 1022.8
20190825074505 18 100 14.5 22.5 0.00 0.00 0.00 81 1022.9
20190825074006 18 102 9.7 19.3 0.00 0.00 0.00 81 1022.9
20190825073505 18 97 11.3 20.9 0.00 0.00 0.00 81 1022.8
20190825073007 18 100 11.3 19.3 0.00 0.00 0.00 81 1022.8
20190825072505 18 93 11.3 20.9 0.00 0.00 0.00 81 1022.7
20190825072005 18 91 11.3 20.9 0.00 0.00 0.00 82 1022.7
20190825071505 18 95 9.7 22.5 0.00 0.00 0.00 82 1022.7
20190825071005 18 100 8.0 20.9 0.00 0.00 0.00 82 1022.7
20190825070504 18 89 9.7 19.3 0.00 0.00 0.00 82 1022.6
20190825070007 17 97 9.7 16.1 0.00 0.00 0.00 82 1022.5
20190825065505 17 88 9.7 16.1 0.00 0.00 0.00 82 1022.5
20190825065006 17 88 9.7 19.3 0.00 0.00 0.00 82 1022.5
20190825064505 17 83 9.7 14.5 0.00 0.00 0.00 82 1022.3
20190825064004 17 84 11.3 19.3 0.00 0.00 0.00 82 1022.3
20190825063505 17 83 9.7 19.3 0.00 0.00 0.00 82 1022.2
20190825063008 17 69 11.3 20.9 0.00 0.00 0.00 82 1022.3
20190825062505 17 81 8.0 19.3 0.00 0.00 0.00 82 1022.2
20190825062004 17 92 11.3 19.3 0.00 0.00 0.00 82 1022.3
20190825061505 17 79 11.3 19.3 0.00 0.00 0.00 82 1022.3
20190825061005 17 80 9.7 16.1 0.00 0.00 0.00 82 1022.2
20190825060505 17 81 4.8 22.5 0.00 0.00 0.00 82 1022.2
20190825060008 17 86 9.7 22.5 0.00 0.00 0.00 82 1022.2
20190825055505 17 86 8.0 19.3 0.00 0.00 0.00 82 1022.3
20190825055005 17 88 9.7 22.5 0.00 0.00 0.00 82 1022.3
20190825054506 16 83 8.0 19.3 0.00 0.00 0.00 82 1022.3
20190825054005 16 78 8.0 20.9 0.00 0.00 0.00 82 1022.2
20190825053505 16 83 9.7 19.3 0.00 0.00 0.00 82 1022.3
20190825053007 16 80 11.3 22.5 0.00 0.00 0.00 82 1022.3
20190825052505 16 83 11.3 22.5 0.00 0.00 0.00 82 1022.3
20190825052004 16 83 9.7 22.5 0.00 0.00 0.00 82 1022.3
20190825051505 16 82 11.3 20.9 0.00 0.00 0.00 82 1022.3
20190825051005 16 77 8.0 16.1 0.00 0.00 0.00 82 1022.4
20190825050505 16 89 6.4 14.5 0.00 0.00 0.00 82 1022.4
20190825050007 16 107 8.0 19.3 0.00 0.00 0.00 82 1022.4
20190825045505 16 73 9.7 14.5 0.00 0.00 0.00 82 1022.4
20190825045004 16 70 8.0 14.5 0.00 0.00 0.00 82 1022.5
20190825044505 16 73 8.0 16.1 0.00 0.00 0.00 82 1022.5
20190825044005 17 84 9.7 14.5 0.00 0.00 0.00 82 1022.5
20190825043504 17 81 8.0 12.9 0.00 0.00 0.00 82 1022.5
20190825043008 17 81 8.0 14.5 0.00 0.00 0.00 82 1022.6
20190825042505 17 84 6.4 19.3 0.00 0.00 0.00 82 1022.5
20190825042005 17 80 9.7 19.3 0.00 0.00 0.00 82 1022.5
20190825041505 17 78 6.4 16.1 0.00 0.00 0.00 82 1022.6
20190825041005 17 67 8.0 16.1 0.00 0.00 0.00 82 1022.7
20190825040505 17 80 9.7 16.1 0.00 0.00 0.00 82 1022.6
20190825040007 17 93 8.0 20.9 0.00 0.00 0.00 82 1022.7
20190825035505 17 86 9.7 20.9 0.00 0.00 0.00 82 1022.7
20190825035004 17 76 9.7 19.3 0.00 0.00 0.00 82 1022.7
20190825034505 17 74 8.0 14.5 0.00 0.00 0.00 82 1022.7
20190825034006 17 76 6.4 16.1 0.00 0.00 0.00 82 1022.6
20190825033505 17 77 8.0 16.1 0.00 0.00 0.00 82 1022.7
20190825033008 17 76 9.7 16.1 0.00 0.00 0.00 82 1022.6
20190825032505 17 89 8.0 16.1 0.00 0.00 0.00 82 1022.5
20190825032005 17 80 11.3 22.5 0.00 0.00 0.00 81 1022.4
20190825031505 17 78 8.0 19.3 0.00 0.00 0.00 81 1022.4
20190825031005 17 83 8.0 16.1 0.00 0.00 0.00 81 1022.5
20190825030505 17 84 6.4 14.5 0.00 0.00 0.00 81 1022.5
20190825030008 17 92 4.8 11.3 0.00 0.00 0.00 81 1022.5
20190825025504 17 86 4.8 14.5 0.00 0.00 0.00 81 1022.6
20190825025005 17 108 4.8 16.1 0.00 0.00 0.00 81 1022.7
20190825024505 17 103 3.2 16.1 0.00 0.00 0.00 81 1022.6
20190825024005 17 92 3.2 9.7 0.00 0.00 0.00 81 1022.6
20190825023505 17 83 3.2 11.3 0.00 0.00 0.00 81 1022.6
20190825023007 17 90 9.7 14.5 0.00 0.00 0.00 81 1022.6
20190825022505 17 96 8.0 14.5 0.00 0.00 0.00 81 1022.7
20190825022005 17 108 6.4 14.5 0.00 0.00 0.00 81 1022.6
20190825021505 17 112 6.4 16.1 0.00 0.00 0.00 81 1022.6
20190825021005 17 74 8.0 12.9 0.00 0.00 0.00 81 1022.6
20190825020505 17 78 8.0 14.5 0.00 0.00 0.00 81 1022.7
20190825020008 17 79 6.4 12.9 0.00 0.00 0.00 81 1022.7
20190825015505 17 86 8.0 16.1 0.00 0.00 0.00 82 1022.7
20190825015005 17 89 9.7 19.3 0.00 0.00 0.00 82 1022.8
20190825014505 17 70 9.7 19.3 0.00 0.00 0.00 82 1022.8
20190825014005 17 69 8.0 14.5 0.00 0.00 0.00 82 1022.8
20190825013505 17 79 6.4 11.3 0.00 0.00 0.00 82 1022.9
20190825013008 17 103 8.0 14.5 0.00 0.00 0.00 82 1022.9
20190825012505 17 147 4.8 9.7 0.00 0.00 0.00 82 1023.0
20190825012006 17 94 3.2 9.7 0.00 0.00 0.00 82 1023.0
20190825011506 17 118 4.8 12.9 0.00 0.00 0.00 82 1022.9
20190825011005 17 95 6.4 14.5 0.00 0.00 0.00 82 1022.9
20190825010504 17 60 8.0 14.5 0.00 0.00 0.00 82 1023.0
20190825010008 17 94 9.7 19.3 0.00 0.00 0.00 82 1023.0
20190825005505 17 113 1.6 25.7 0.00 0.00 0.00 81 1023.0
20190825005005 17 99 9.7 25.7 0.00 0.00 0.00 81 1023.0
20190825004505 17 136 4.8 19.3 0.00 0.00 0.00 81 1023.0
20190825004005 17 88 9.7 19.3 0.00 0.00 0.00 81 1023.0
20190825003505 17 93 14.5 22.5 0.00 0.00 0.00 81 1023.0
20190825003008 17 104 8.0 16.1 0.00 0.00 0.00 81 1023.1
20190825002505 17 81 4.8 14.5 0.00 0.00 0.00 81 1023.1
20190825002006 17 75 8.0 14.5 0.00 0.00 0.00 81 1023.1
20190825001506 17 242 3.2 14.5 0.00 0.00 0.00 81 1023.1
20190825001007 17 95 8.0 22.5 0.00 0.00 0.00 81 1023.2
20190825000505 17 113 6.4 20.9 0.00 0.00 0.00 81 1023.1
20190825000008 17 167 6.4 14.5 0.00 0.00 0.00 81 1023.0
20190824235505 17 127 6.4 12.9 0.00 0.00 0.00 81 1023.0
20190824235005 17 109 4.8 11.3 0.00 0.00 0.00 81 1023.1
20190824234505 17 138 4.8 12.9 0.00 0.00 0.00 81 1023.1
20190824234006 17 81 11.3 22.5 0.00 0.00 0.00 81 1022.9
20190824233505 17 155 4.8 14.5 0.00 0.00 0.00 81 1022.9
20190824233008 17 65 6.4 12.9 0.00 0.00 0.00 81 1023.1
20190824232505 17 81 6.4 14.5 0.00 0.00 0.00 81 1023.0
20190824232006 17 90 9.7 19.3 0.00 0.00 0.00 81 1023.0
20190824231505 17 72 11.3 20.9 0.00 0.00 0.00 81 1023.0
20190824231006 17 73 9.7 24.1 0.00 0.00 0.00 82 1023.0
20190824230507 17 72 8.0 19.3 0.00 0.00 0.00 82 1022.9
20190824225956 17 73 8.0 20.9 0.00 0.00 0.00 82 1022.9
20190824225453 17 91 4.8 14.5 0.00 0.00 0.00 82 1023.0
20190824224953 17 76 3.2 14.5 0.00 0.00 0.00 82 1023.0
20190824224453 17 81 4.8 14.5 0.00 0.00 0.00 83 1023.0
20190824223953 17 79 4.8 11.3 0.00 0.00 0.00 83 1023.1
20190824223452 17 70 4.8 9.7 0.00 0.00 0.00 83 1023.0
20190824222955 17 4 6.4 16.1 0.00 0.00 0.00 83 1023.1
20190824222452 17 24 3.2 16.1 0.00 0.00 0.00 83 1023.2
20190824221952 17 70 8.0 22.5 0.00 0.00 0.00 83 1023.0
20190824221453 17 54 8.0 14.5 0.00 0.00 0.00 83 1023.2
20190824220953 17 72 6.4 14.5 0.00 0.00 0.00 83 1023.1
20190824220452 17 66 4.8 11.3 0.00 0.00 0.00 83 1023.1
20190824215955 17 89 1.6 11.3 0.00 0.00 0.00 83 1023.1
20190824215452 17 71 3.2 9.7 0.00 0.00 0.00 82 1023.1
20190824214954 17 89 3.2 9.7 0.00 0.00 0.00 82 1023.1
20190824214452 17 60 4.8 12.9 0.00 0.00 0.00 82 1023.0
20190824213953 17 19 3.2 16.1 0.00 0.00 0.00 82 1023.1
20190824213453 17 49 6.4 14.5 0.00 0.00 0.00 82 1023.1
20190824212955 17 73 4.8 12.9 0.00 0.00 0.00 82 1023.0
20190824212453 17 66 4.8 14.5 0.00 0.00 0.00 82 1022.9
20190824211953 17 88 9.7 20.9 0.00 0.00 0.00 82 1023.0
20190824211453 17 73 11.3 16.1 0.00 0.00 0.00 82 1023.2
20190824210953 17 82 11.3 16.1 0.00 0.00 0.00 82 1023.1
20190824210452 17 78 9.7 14.5 0.00 0.00 0.00 82 1023.1
20190824205955 17 76 8.0 14.5 0.00 0.00 0.00 81 1023.0
20190824205454 17 89 8.0 14.5 0.00 0.00 0.00 81 1022.9
20190824204953 17 103 4.8 14.5 0.00 0.00 0.00 81 1023.2
20190824204453 17 88 9.7 14.5 0.00 0.00 0.00 81 1023.2
20190824203953 17 90 8.0 14.5 0.00 0.00 0.00 81 1023.1
20190824203454 17 91 6.4 14.5 0.00 0.00 0.00 81 1023.0
20190824202955 17 90 9.7 20.9 0.00 0.00 0.00 80 1023.1
20190824202453 17 103 11.3 16.1 0.00 0.00 0.00 80 1023.0
20190824201953 17 99 11.3 20.9 0.00 0.00 0.00 80 1023.0
20190824201452 17 85 9.7 19.3 0.00 0.00 0.00 80 1022.9
20190824200953 17 95 8.0 14.5 0.00 0.00 0.00 80 1023.0
20190824200452 17 88 4.8 12.9 0.00 0.00 0.00 80 1023.0
20190824195955 17 89 8.0 14.5 0.00 0.00 0.00 79 1023.0
20190824195452 17 93 8.0 12.9 0.00 0.00 0.00 79 1023.1
20190824194952 18 108 3.2 9.7 0.00 0.00 0.00 79 1023.1
20190824194453 18 73 4.8 9.7 0.00 0.00 0.00 79 1023.2
20190824193953 18 60 3.2 9.7 0.00 0.00 0.00 79 1023.1
20190824193454 18 19 1.6 4.8 0.00 0.00 0.00 79 1023.0
20190824192955 18 38 4.8 9.7 0.00 0.00 0.00 79 1023.1
20190824192453 18 106 1.6 3.2 0.00 0.00 0.00 79 1023.1
20190824191953 18 41 1.6 4.8 0.00 0.00 0.00 79 1023.1
20190824191453 18 355 3.2 4.8 0.00 0.00 0.00 79 1023.1
20190824190953 18 15 3.2 4.8 0.00 0.00 0.00 79 1023.0
20190824190453 18 30 1.6 4.8 0.00 0.00 0.00 79 1023.2
20190824185956 18 46 3.2 8.0 0.00 0.00 0.00 79 1023.2
20190824185453 18 76 3.2 9.7 0.00 0.00 0.00 79 1023.1
20190824184953 18 97 3.2 4.8 0.00 0.00 0.00 79 1023.1
20190824184454 18 30 3.2 11.3 0.00 0.00 0.00 79 1023.2
20190824183953 18 76 8.0 12.9 0.00 0.00 0.00 79 1023.3
20190824183453 18 74 1.6 4.8 0.00 0.00 0.00 79 1023.1
20190824182956 18 92 1.6 8.0 0.00 0.00 0.00 79 1023.2
20190824182453 18 98 3.2 4.8 0.00 0.00 0.00 79 1023.0
20190824181953 19 91 3.2 9.7 0.00 0.00 0.00 79 1023.1
20190824181453 19 73 4.8 8.0 0.00 0.00 0.00 79 1023.0
20190824180953 19 100 1.6 4.8 0.00 0.00 0.00 79 1023.3
20190824180453 19 97 3.2 4.8 0.00 0.00 0.00 79 1023.2
20190824175956 19 111 3.2 3.2 0.00 0.00 0.00 78 1023.1
20190824175453 19 105 3.2 4.8 0.00 0.00 0.00 78 1023.2
20190824174954 19 82 3.2 8.0 0.00 0.00 0.00 78 1023.3
20190824174453 19 93 3.2 8.0 0.00 0.00 0.00 78 1023.3
20190824173953 19 89 6.4 9.7 0.00 0.00 0.00 78 1023.1
20190824173453 19 85 4.8 8.0 0.00 0.00 0.00 78 1023.4
20190824172956 19 59 3.2 9.7 0.00 0.00 0.00 78 1023.3
20190824172453 19 54 3.2 8.0 0.00 0.00 0.00 78 1023.4
20190824171954 19 17 1.6 8.0 0.00 0.00 0.00 78 1023.5
20190824171453 19 150 1.6 8.0 0.00 0.00 0.00 78 1023.5
20190824170953 19 129 4.8 8.0 0.00 0.00 0.00 78 1023.5
20190824170453 19 137 4.8 9.7 0.00 0.00 0.00 78 1023.4
20190824165956 19 110 3.2 8.0 0.00 0.00 0.00 78 1023.7
20190824165453 19 121 4.8 9.7 0.00 0.00 0.00 78 1023.6
20190824164953 19 143 4.8 8.0 0.00 0.00 0.00 78 1023.7
20190824164453 19 149 3.2 8.0 0.00 0.00 0.00 78 1023.7
20190824163953 19 135 6.4 9.7 0.00 0.00 0.00 78 1023.7
20190824163454 19 136 6.4 9.7 0.00 0.00 0.00 78 1023.7
20190824162955 19 129 6.4 11.3 0.00 0.00 0.00 78 1023.8
20190824162452 19 110 4.8 11.3 0.00 0.00 0.00 77 1023.8
20190824161953 19 121 6.4 11.3 0.00 0.00 0.00 77 1023.9
20190824161454 20 143 8.0 11.3 0.00 0.00 0.00 77 1024.0
20190824160953 20 120 8.0 12.9 0.00 0.00 0.00 76 1024.0
20190824160453 20 130 6.4 11.3 0.00 0.00 0.00 76 1024.1
20190824155956 20 116 9.7 12.9 0.00 0.00 0.00 76 1024.1
20190824155453 20 158 6.4 12.9 0.00 0.00 0.00 76 1024.1
20190824154953 20 149 8.0 16.1 0.00 0.00 0.00 76 1024.0
20190824154453 20 170 8.0 14.5 0.00 0.00 0.00 76 1023.9
20190824153953 20 169 6.4 14.5 0.00 0.00 0.00 75 1024.0
20190824153453 21 174 4.8 14.5 0.00 0.00 0.00 75 1023.8
20190824152956 21 107 4.8 11.3 0.00 0.00 0.00 76 1023.9
20190824152454 21 84 4.8 11.3 0.00 0.00 0.00 76 1023.9
20190824151953 21 118 3.2 11.3 0.00 0.00 0.00 76 1023.9